Time;durP1;ratioP1;P1;durP2;ratioP2;P2;SDS_P1;SDS_P2;PMS_P1;PMS_P2;Temp;Humidity;BMP_temperature;BMP_pressure;BME280_temperature;BME280_humidity;BME280_pressure;Samples;Min_cycle;Max_cycle;Signal;HPM_P1;HPM_P2
2021/09/10 00:01:50;;;;;;;3.63;3.30;;;23.70;99.90;;;;;;5089265;28;20514;-72
2021/09/10 00:04:18;;;;;;;3.30;3.00;;;23.70;99.90;;;;;;5086550;28;20461;-72
2021/09/10 00:06:45;;;;;;;3.03;2.73;;;23.80;99.90;;;;;;5080660;28;20514;-73
2021/09/10 00:09:11;;;;;;;3.00;2.60;;;23.70;99.90;;;;;;5093714;28;20436;-73
2021/09/10 00:11:38;;;;;;;2.63;2.43;;;23.70;99.90;;;;;;5093308;28;20497;-73
2021/09/10 00:14:05;;;;;;;8.33;2.93;;;23.70;99.90;;;;;;5091358;28;20864;-72
2021/09/10 00:16:32;;;;;;;2.60;2.40;;;23.70;99.90;;;;;;5092783;28;20463;-73
2021/09/10 00:18:58;;;;;;;3.00;2.70;;;23.60;99.90;;;;;;5084993;28;20472;-73
2021/09/10 00:21:26;;;;;;;3.03;2.73;;;23.70;99.90;;;;;;5073668;28;20437;-73
2021/09/10 00:23:53;;;;;;;2.73;2.53;;;23.60;99.90;;;;;;5092531;28;20494;-73
2021/09/10 00:26:20;;;;;;;2.60;2.33;;;23.60;99.90;;;;;;5075956;28;20457;-72
2021/09/10 00:28:47;;;;;;;3.27;2.93;;;23.60;99.90;;;;;;5087438;28;20471;-72
2021/09/10 00:31:14;;;;;;;4.43;3.47;;;23.60;99.90;;;;;;5092726;28;20460;-72
2021/09/10 00:33:40;;;;;;;3.20;2.80;;;23.60;99.90;;;;;;5087368;28;20460;-72
2021/09/10 00:36:07;;;;;;;3.30;2.90;;;23.60;99.90;;;;;;5090776;28;20467;-72
2021/09/10 00:38:35;;;;;;;3.13;2.90;;;23.60;99.90;;;;;;5093372;28;20440;-72
2021/09/10 00:41:03;;;;;;;3.40;3.10;;;23.60;99.90;;;;;;5091326;28;20464;-73
2021/09/10 00:43:29;;;;;;;3.40;3.10;;;23.60;99.90;;;;;;5091768;28;20829;-72
2021/09/10 00:45:58;;;;;;;2.50;2.30;;;23.60;99.90;;;;;;5091796;28;20455;-72
2021/09/10 00:48:27;;;;;;;3.33;2.63;;;23.50;99.90;;;;;;5077306;28;20481;-73
2021/09/10 00:50:55;;;;;;;2.83;2.63;;;23.60;99.90;;;;;;5073030;28;20441;-72
2021/09/10 00:53:22;;;;;;;3.47;3.17;;;23.60;99.90;;;;;;5078311;28;20478;-72
2021/09/10 00:55:50;;;;;;;3.60;3.30;;;23.50;99.90;;;;;;5088798;28;20822;-72
2021/09/10 00:58:16;;;;;;;3.40;3.07;;;23.50;99.90;;;;;;5092960;28;20497;-72
2021/09/10 01:00:43;;;;;;;3.17;2.87;;;23.50;99.90;;;;;;5093025;28;20440;-72
2021/09/10 01:03:11;;;;;;;2.57;2.37;;;23.50;99.90;;;;;;5092513;28;20436;-72
2021/09/10 01:05:41;;;;;;;3.30;3.00;;;23.50;99.90;;;;;;5079180;28;20457;-72
2021/09/10 01:08:10;;;;;;;2.93;2.73;;;23.50;99.90;;;;;;5075727;28;20468;-72
2021/09/10 01:10:38;;;;;;;2.80;2.60;;;23.50;99.90;;;;;;5085674;28;20456;-72
2021/09/10 01:13:06;;;;;;;2.77;2.50;;;23.50;99.90;;;;;;5090124;28;20670;-73
2021/09/10 01:15:33;;;;;;;4.00;3.27;;;23.40;99.90;;;;;;5091484;28;20494;-73
2021/09/10 01:18:00;;;;;;;3.20;2.60;;;23.40;99.90;;;;;;5072586;28;20457;-73
2021/09/10 01:20:26;;;;;;;3.13;2.93;;;23.40;99.90;;;;;;5086589;28;20529;-73
2021/09/10 01:22:53;;;;;;;2.70;2.50;;;23.40;99.90;;;;;;5092557;28;20458;-73
2021/09/10 01:25:22;;;;;;;2.97;2.70;;;23.40;99.90;;;;;;5086236;28;20871;-73
2021/09/10 01:27:51;;;;;;;3.40;3.20;;;23.40;99.90;;;;;;5092256;28;20472;-73
2021/09/10 01:30:21;;;;;;;3.90;3.13;;;23.40;99.90;;;;;;5090159;28;20457;-73
2021/09/10 01:32:49;;;;;;;3.03;2.77;;;23.40;99.90;;;;;;5074324;28;20814;-72
2021/09/10 01:35:16;;;;;;;3.33;3.10;;;23.40;99.90;;;;;;5086378;28;20444;-73
2021/09/10 01:37:43;;;;;;;2.67;2.47;;;23.30;99.90;;;;;;5081999;28;20452;-73
2021/09/10 01:40:11;;;;;;;3.50;2.90;;;23.30;99.90;;;;;;5087628;28;20517;-73
2021/09/10 01:42:40;;;;;;;3.30;3.10;;;23.30;99.90;;;;;;5092123;28;20456;-72
2021/09/10 01:45:09;;;;;;;2.90;2.60;;;23.30;99.90;;;;;;5089097;28;20453;-72
2021/09/10 01:47:36;;;;;;;3.20;2.90;;;23.30;99.90;;;;;;5086158;28;20541;-73
2021/09/10 01:50:04;;;;;;;3.30;3.00;;;23.30;99.90;;;;;;5083534;28;20452;-73
2021/09/10 01:52:31;;;;;;;3.90;3.47;;;23.30;99.90;;;;;;5089455;28;20483;-73
2021/09/10 01:54:58;;;;;;;4.10;3.50;;;23.30;99.90;;;;;;5087463;28;20546;-73
2021/09/10 01:57:24;;;;;;;4.20;2.93;;;23.30;99.90;;;;;;5091379;28;20944;-73
2021/09/10 01:59:52;;;;;;;3.60;3.30;;;23.20;99.90;;;;;;5088823;28;20464;-73
2021/09/10 02:02:21;;;;;;;3.40;3.10;;;23.20;99.90;;;;;;5077062;28;21417;-73
2021/09/10 02:04:47;;;;;;;3.43;3.13;;;23.20;99.90;;;;;;5087564;28;21038;-73
2021/09/10 02:07:14;;;;;;;2.50;2.30;;;23.20;99.90;;;;;;5091524;28;20844;-73
2021/09/10 02:09:41;;;;;;;3.30;2.67;;;23.20;99.90;;;;;;5086344;28;20511;-73
2021/09/10 02:12:08;;;;;;;3.70;3.37;;;23.20;99.90;;;;;;5085167;28;20446;-73
2021/09/10 02:14:36;;;;;;;4.80;2.67;;;23.20;99.90;;;;;;5091979;28;20489;-73
2021/09/10 02:17:05;;;;;;;3.07;2.80;;;23.20;99.90;;;;;;5091367;28;20440;-73
2021/09/10 02:19:31;;;;;;;3.27;2.97;;;23.10;99.90;;;;;;5074017;28;20472;-73
2021/09/10 02:21:59;;;;;;;3.40;3.10;;;23.20;99.90;;;;;;5080449;28;20456;-73
2021/09/10 02:24:26;;;;;;;3.07;2.87;;;23.10;99.90;;;;;;5087241;28;20453;-72
2021/09/10 02:26:52;;;;;;;3.37;3.07;;;23.10;99.90;;;;;;5089749;28;20452;-73
2021/09/10 02:29:19;;;;;;;4.23;2.63;;;23.10;99.90;;;;;;5085622;28;20473;-72
2021/09/10 02:31:46;;;;;;;3.43;3.13;;;23.10;99.90;;;;;;5080849;28;20449;-73
2021/09/10 02:34:14;;;;;;;3.23;2.93;;;23.10;99.90;;;;;;5073055;28;20464;-72
2021/09/10 02:36:40;;;;;;;3.40;3.03;;;23.10;99.90;;;;;;5075509;28;21008;-72
2021/09/10 02:39:11;;;;;;;3.10;2.80;;;23.10;99.90;;;;;;5089787;28;20513;-73
2021/09/10 02:41:38;;;;;;;3.17;2.87;;;23.10;99.90;;;;;;5085200;28;20482;-73
2021/09/10 02:44:07;;;;;;;3.30;3.00;;;23.10;99.90;;;;;;5082077;28;20457;-72
2021/09/10 02:46:34;;;;;;;3.50;3.00;;;23.00;99.90;;;;;;5071432;28;20441;-72
2021/09/10 02:49:00;;;;;;;3.20;2.90;;;23.00;99.90;;;;;;5071155;28;20473;-73
2021/09/10 02:51:28;;;;;;;3.40;3.10;;;23.00;99.90;;;;;;5076908;28;20448;-72
2021/09/10 02:53:55;;;;;;;2.73;2.53;;;23.00;99.90;;;;;;5089062;28;20506;-73
2021/09/10 02:56:22;;;;;;;2.70;2.50;;;23.10;99.90;;;;;;5078653;28;20518;-73
2021/09/10 02:58:49;;;;;;;3.40;2.80;;;23.00;99.90;;;;;;5090890;28;20444;-73
2021/09/10 03:01:16;;;;;;;3.30;3.03;;;23.00;99.90;;;;;;5087999;28;20457;-73
2021/09/10 03:03:43;;;;;;;4.07;2.77;;;23.00;99.90;;;;;;5079306;28;20457;-73
2021/09/10 03:06:09;;;;;;;3.30;3.10;;;23.00;99.90;;;;;;5093285;28;20482;-73
2021/09/10 03:08:37;;;;;;;3.80;2.60;;;23.00;99.90;;;;;;5095123;28;20480;-73
2021/09/10 03:11:04;;;;;;;3.00;2.80;;;22.90;99.90;;;;;;5087107;28;20505;-73
2021/09/10 03:13:31;;;;;;;3.80;3.33;;;22.90;99.90;;;;;;5092226;28;20455;-73
2021/09/10 03:15:58;;;;;;;4.00;3.70;;;22.90;99.90;;;;;;5094495;28;20557;-73
2021/09/10 03:18:24;;;;;;;2.93;2.73;;;22.90;99.90;;;;;;5095059;28;20448;-73
2021/09/10 03:20:51;;;;;;;3.10;2.80;;;22.90;99.90;;;;;;5079994;28;20533;-73
2021/09/10 03:23:18;;;;;;;3.73;3.43;;;22.90;99.90;;;;;;5091176;28;20569;-73
2021/09/10 03:25:46;;;;;;;2.97;2.67;;;22.90;99.90;;;;;;5089591;28;20460;-73
2021/09/10 03:28:12;;;;;;;3.13;2.83;;;22.90;99.90;;;;;;5094607;28;20521;-73
2021/09/10 03:30:39;;;;;;;2.90;2.70;;;22.90;99.90;;;;;;5091835;28;20521;-73
2021/09/10 03:33:06;;;;;;;2.90;2.60;;;22.80;99.90;;;;;;5086488;28;20461;-73
2021/09/10 03:35:32;;;;;;;3.60;3.30;;;22.80;99.90;;;;;;5093245;28;20441;-73
2021/09/10 03:37:59;;;;;;;3.40;3.10;;;22.90;99.90;;;;;;5094661;28;20497;-73
2021/09/10 03:40:31;;;;;;;7.10;3.13;;;22.80;99.90;;;;;;5084085;28;20579;-73
2021/09/10 03:42:59;;;;;;;3.13;2.83;;;22.90;99.90;;;;;;5088555;28;20456;-73
2021/09/10 03:45:25;;;;;;;3.50;2.93;;;22.80;99.90;;;;;;5093572;28;20497;-73
2021/09/10 03:47:52;;;;;;;3.80;3.50;;;22.80;99.90;;;;;;5088709;28;20820;-73
2021/09/10 03:50:19;;;;;;;3.27;2.70;;;22.80;99.90;;;;;;5074329;28;20514;-73
2021/09/10 03:52:45;;;;;;;3.10;2.80;;;22.80;99.90;;;;;;5091233;28;20456;-73
2021/09/10 03:55:15;;;;;;;4.70;3.23;;;22.80;99.90;;;;;;5082935;28;20869;-72
2021/09/10 03:57:42;;;;;;;3.00;2.70;;;22.80;99.90;;;;;;5091077;28;20487;-73
2021/09/10 04:00:12;;;;;;;3.60;3.30;;;22.80;99.90;;;;;;5093674;28;20836;-73
2021/09/10 04:02:38;;;;;;;3.30;3.00;;;22.70;99.90;;;;;;5091635;28;20467;-72
2021/09/10 04:05:06;;;;;;;3.57;3.27;;;22.70;99.90;;;;;;5096704;28;20462;-72
2021/09/10 04:07:33;;;;;;;2.67;2.47;;;22.70;99.90;;;;;;5093070;28;20441;-73
2021/09/10 04:09:59;;;;;;;3.90;3.10;;;22.70;99.90;;;;;;5073596;28;20845;-74
2021/09/10 04:12:26;;;;;;;3.30;3.10;;;22.70;99.90;;;;;;5092488;28;20855;-73
2021/09/10 04:14:53;;;;;;;3.40;3.03;;;22.70;99.90;;;;;;5093158;28;20440;-73
2021/09/10 04:17:21;;;;;;;3.10;2.73;;;22.70;99.90;;;;;;5092098;28;20519;-73
2021/09/10 04:19:47;;;;;;;3.30;2.97;;;22.70;99.90;;;;;;5083676;28;20859;-73
2021/09/10 04:22:15;;;;;;;3.57;2.90;;;22.70;99.90;;;;;;5083380;28;20456;-73
2021/09/10 04:24:41;;;;;;;3.90;3.10;;;22.70;99.90;;;;;;5077021;28;20477;-73
2021/09/10 04:27:08;;;;;;;3.33;3.03;;;22.70;99.90;;;;;;5074859;28;20507;-72
2021/09/10 04:29:35;;;;;;;2.80;2.60;;;22.60;99.90;;;;;;5083390;28;20864;-73
2021/09/10 04:32:01;;;;;;;7.03;3.37;;;22.60;99.90;;;;;;5088604;28;20799;-72
2021/09/10 04:34:29;;;;;;;2.80;2.60;;;22.60;99.90;;;;;;5077136;28;20452;-73
2021/09/10 04:36:56;;;;;;;2.80;2.60;;;22.60;99.90;;;;;;5074326;28;20449;-72
2021/09/10 04:39:23;;;;;;;2.93;2.70;;;22.60;99.90;;;;;;5089101;28;20871;-73
2021/09/10 04:41:49;;;;;;;3.90;3.60;;;22.50;99.90;;;;;;5077305;28;20589;-73
2021/09/10 04:44:16;;;;;;;3.20;3.00;;;22.50;99.90;;;;;;5073292;28;20495;-72
2021/09/10 04:46:43;;;;;;;3.50;3.20;;;22.50;99.90;;;;;;5073164;28;20437;-72
2021/09/10 04:49:09;;;;;;;3.83;3.53;;;22.60;99.90;;;;;;5087667;28;20488;-72
2021/09/10 04:51:37;;;;;;;4.23;3.60;;;22.50;99.90;;;;;;5090719;28;20498;-72
2021/09/10 04:54:04;;;;;;;3.80;3.40;;;22.50;99.90;;;;;;5080718;28;20844;-72
2021/09/10 04:56:31;;;;;;;2.97;2.73;;;22.50;99.90;;;;;;5078504;28;20456;-72
2021/09/10 04:58:57;;;;;;;3.20;2.90;;;22.50;99.90;;;;;;5092672;28;20959;-73
2021/09/10 05:01:24;;;;;;;3.50;3.20;;;22.50;99.90;;;;;;5092404;28;20198;-73
2021/09/10 05:03:51;;;;;;;2.83;2.63;;;22.40;99.90;;;;;;5092768;28;20513;-73
2021/09/10 05:06:17;;;;;;;2.97;2.70;;;22.40;99.90;;;;;;5084136;28;20863;-73
2021/09/10 05:08:45;;;;;;;3.33;3.03;;;22.40;99.90;;;;;;5091545;28;20908;-72
2021/09/10 05:11:12;;;;;;;3.40;3.10;;;22.40;99.90;;;;;;5084809;28;20460;-72
2021/09/10 05:13:39;;;;;;;3.57;3.27;;;22.40;99.90;;;;;;5092053;28;20459;-73
2021/09/10 05:16:05;;;;;;;3.10;2.83;;;22.40;99.90;;;;;;5103718;28;20499;-73
2021/09/10 05:18:32;;;;;;;3.27;2.97;;;22.40;99.90;;;;;;5077925;28;20467;-73
2021/09/10 05:20:59;;;;;;;4.27;3.97;;;22.40;99.90;;;;;;5079671;28;20517;-73
2021/09/10 05:23:26;;;;;;;3.80;3.40;;;22.40;99.90;;;;;;5092568;28;21076;-73
2021/09/10 05:25:54;;;;;;;3.90;3.17;;;22.40;99.90;;;;;;5082534;28;20251;-73
2021/09/10 05:28:21;;;;;;;3.13;2.83;;;22.40;99.90;;;;;;5091918;28;20436;-73
2021/09/10 05:30:48;;;;;;;4.10;3.37;;;22.40;99.90;;;;;;5090377;28;20529;-73
2021/09/10 05:33:14;;;;;;;3.97;3.17;;;22.40;99.90;;;;;;5085173;28;20552;-73
2021/09/10 05:35:41;;;;;;;4.07;3.53;;;22.40;99.90;;;;;;5088566;28;20831;-73
2021/09/10 05:38:08;;;;;;;3.80;3.50;;;22.40;99.90;;;;;;5092468;28;20435;-73
2021/09/10 05:40:34;;;;;;;4.40;3.67;;;22.40;99.90;;;;;;5089862;28;20510;-73
2021/09/10 05:43:03;;;;;;;3.60;3.30;;;22.40;99.90;;;;;;5091858;28;20444;-73
2021/09/10 05:45:29;;;;;;;3.23;3.03;;;22.30;99.90;;;;;;5090815;28;20845;-73
2021/09/10 05:47:56;;;;;;;3.50;3.20;;;22.30;99.90;;;;;;5092041;28;20452;-73
2021/09/10 05:50:23;;;;;;;3.87;3.57;;;22.30;99.90;;;;;;5085372;28;20476;-73
2021/09/10 05:52:49;;;;;;;3.73;3.43;;;22.30;99.90;;;;;;5091991;28;20448;-74
2021/09/10 05:55:16;;;;;;;3.97;3.60;;;22.30;99.90;;;;;;5082554;28;20468;-74
2021/09/10 05:57:43;;;;;;;3.40;3.10;;;22.40;99.90;;;;;;5074151;28;20437;-73
2021/09/10 06:00:12;;;;;;;3.90;3.60;;;22.40;99.90;;;;;;5081369;28;20468;-74
2021/09/10 06:02:39;;;;;;;3.97;3.67;;;22.40;99.90;;;;;;5078523;28;20503;-73
2021/09/10 06:05:07;;;;;;;3.67;3.37;;;22.50;99.90;;;;;;5083859;28;20917;-73
2021/09/10 06:07:33;;;;;;;4.00;3.60;;;22.50;99.90;;;;;;5089489;28;20460;-73
2021/09/10 06:10:00;;;;;;;3.10;2.90;;;22.60;99.90;;;;;;5085060;28;20481;-73
2021/09/10 06:12:27;;;;;;;4.10;3.43;;;22.60;99.90;;;;;;5089645;28;20476;-73
2021/09/10 06:14:54;;;;;;;3.87;3.57;;;22.60;99.90;;;;;;5091176;28;20444;-72
2021/09/10 06:17:22;;;;;;;3.97;3.57;;;22.50;99.90;;;;;;5080191;28;20448;-73
2021/09/10 06:19:48;;;;;;;3.37;3.03;;;22.50;99.90;;;;;;5087246;28;20537;-73
2021/09/10 06:22:15;;;;;;;3.60;3.30;;;22.50;99.90;;;;;;5091478;28;20497;-73
2021/09/10 06:24:43;;;;;;;4.00;3.70;;;22.40;99.90;;;;;;5084322;28;20461;-73
2021/09/10 06:27:09;;;;;;;3.37;3.07;;;22.40;99.90;;;;;;5086702;28;20944;-73
2021/09/10 06:29:36;;;;;;;3.73;3.43;;;22.40;99.90;;;;;;5081656;28;20897;-72
2021/09/10 06:32:03;;;;;;;4.50;2.97;;;22.40;99.90;;;;;;5073635;28;20942;-72
2021/09/10 06:34:31;;;;;;;3.30;3.10;;;22.40;99.90;;;;;;5081059;28;20518;-72
2021/09/10 06:36:58;;;;;;;3.83;3.43;;;22.40;99.90;;;;;;5091868;28;20504;-72
2021/09/10 06:39:25;;;;;;;3.10;2.80;;;22.30;99.90;;;;;;5091848;28;20460;-72
2021/09/10 06:41:51;;;;;;;3.90;3.60;;;22.30;99.90;;;;;;5089447;28;20521;-72
2021/09/10 06:44:18;;;;;;;3.87;3.47;;;22.30;99.90;;;;;;5094792;28;20436;-73
2021/09/10 06:46:45;;;;;;;3.80;3.50;;;22.30;99.90;;;;;;5093727;28;20499;-73
2021/09/10 06:49:11;;;;;;;3.93;3.63;;;22.30;99.90;;;;;;5079725;28;20526;-78
2021/09/10 06:51:39;;;;;;;3.93;3.63;;;22.30;99.90;;;;;;5095939;28;20521;-78
2021/09/10 06:54:06;;;;;;;4.20;3.80;;;22.30;99.90;;;;;;5096014;28;20444;-78
2021/09/10 06:56:33;;;;;;;2.83;2.63;;;22.30;99.90;;;;;;5094235;28;20205;-79
2021/09/10 06:58:59;;;;;;;3.33;2.77;;;22.30;99.90;;;;;;5089348;28;20459;-78
2021/09/10 07:01:26;;;;;;;4.53;3.60;;;22.30;99.90;;;;;;5085988;28;20539;-79
2021/09/10 07:03:53;;;;;;;3.77;3.47;;;22.40;99.90;;;;;;5088032;28;20498;-77
2021/09/10 07:06:20;;;;;;;3.20;3.00;;;22.40;99.90;;;;;;5086579;28;21019;-78
2021/09/10 07:08:48;;;;;;;4.07;3.73;;;22.40;99.90;;;;;;5082788;28;20948;-72
2021/09/10 07:11:15;;;;;;;3.60;3.30;;;22.40;99.90;;;;;;5092606;28;20506;-72
2021/09/10 07:13:41;;;;;;;3.60;3.30;;;22.40;99.90;;;;;;5094522;28;20450;-73
2021/09/10 07:16:08;;;;;;;3.67;3.37;;;22.40;99.90;;;;;;5100887;28;20497;-73
2021/09/10 07:18:35;;;;;;;4.33;3.30;;;22.40;99.90;;;;;;5092840;28;20460;-74
2021/09/10 07:21:03;;;;;;;3.33;3.03;;;22.50;99.90;;;;;;5083787;28;20483;-74
2021/09/10 07:23:31;;;;;;;3.03;2.83;;;22.50;99.90;;;;;;5091690;28;20460;-74
2021/09/10 07:26:02;;;;;;;8.10;7.07;;;22.50;99.90;;;;;;5087191;28;20465;-74
2021/09/10 07:28:29;;;;;;;6.10;5.50;;;22.40;99.90;;;;;;5088284;28;20447;-74
2021/09/10 07:30:56;;;;;;;7.10;4.73;;;22.40;99.90;;;;;;5074554;28;20481;-74
2021/09/10 07:33:22;;;;;;;4.43;4.13;;;22.50;99.90;;;;;;5093615;28;20467;-74
2021/09/10 07:35:49;;;;;;;4.53;4.13;;;22.50;99.90;;;;;;5089706;28;20961;-74
2021/09/10 07:38:16;;;;;;;5.63;4.30;;;22.60;99.90;;;;;;5103460;28;20891;-74
2021/09/10 07:40:43;;;;;;;4.00;3.67;;;22.60;99.90;;;;;;5086538;28;20456;-74
2021/09/10 07:43:11;;;;;;;4.83;4.43;;;22.70;99.90;;;;;;5092181;28;20444;-74
2021/09/10 07:45:37;;;;;;;3.73;3.13;;;22.70;99.90;;;;;;5094211;28;20447;-74
2021/09/10 07:48:05;;;;;;;4.90;4.03;;;22.80;99.90;;;;;;5091743;28;20493;-74
2021/09/10 07:50:31;;;;;;;3.73;3.27;;;22.80;99.90;;;;;;5075314;28;20571;-74
2021/09/10 07:52:58;;;;;;;3.40;3.10;;;22.80;99.90;;;;;;5093263;28;20467;-74
2021/09/10 07:55:25;;;;;;;3.90;3.60;;;22.80;99.90;;;;;;5085182;28;20468;-74
2021/09/10 07:57:51;;;;;;;3.70;3.40;;;22.90;99.90;;;;;;5091092;28;20968;-74
2021/09/10 08:00:21;;;;;;;5.50;3.90;;;23.00;99.90;;;;;;5093073;28;20972;-74
2021/09/10 08:02:48;;;;;;;4.20;3.40;;;23.10;99.90;;;;;;5087608;28;20460;-74
2021/09/10 08:05:15;;;;;;;3.80;3.50;;;23.20;99.90;;;;;;5085819;28;20448;-74
2021/09/10 08:07:42;;;;;;;3.30;3.07;;;23.30;99.90;;;;;;5077237;28;20449;-74
2021/09/10 08:10:13;;;;;;;4.10;3.70;;;23.30;99.90;;;;;;5085000;28;20546;-74
2021/09/10 08:12:40;;;;;;;4.43;3.20;;;23.40;99.90;;;;;;5091841;28;20459;-74
2021/09/10 08:15:08;;;;;;;3.13;2.83;;;23.60;99.90;;;;;;5093476;28;20850;-74
2021/09/10 08:17:36;;;;;;;3.30;3.00;;;23.70;99.90;;;;;;5085947;28;20457;-74
2021/09/10 08:20:03;;;;;;;3.90;3.60;;;23.90;99.90;;;;;;5073425;28;20523;-74
2021/09/10 08:22:30;;;;;;;3.23;3.00;;;24.10;99.90;;;;;;5079173;28;20672;-74
2021/09/10 08:24:57;;;;;;;5.17;3.27;;;24.20;99.90;;;;;;5074480;28;20468;-74
2021/09/10 08:27:24;;;;;;;6.00;3.40;;;24.40;99.90;;;;;;5089860;28;20448;-74
2021/09/10 08:29:50;;;;;;;3.30;3.10;;;24.50;99.90;;;;;;5093488;28;20505;-74
2021/09/10 08:32:17;;;;;;;3.50;3.20;;;24.70;99.90;;;;;;5091783;28;20471;-74
2021/09/10 08:34:45;;;;;;;3.83;3.40;;;24.80;99.90;;;;;;5083289;28;20494;-74
2021/09/10 08:37:12;;;;;;;4.03;3.63;;;25.00;99.90;;;;;;5093472;28;20494;-74
2021/09/10 08:39:38;;;;;;;4.87;3.53;;;25.00;99.90;;;;;;5085665;28;20458;-74
2021/09/10 08:42:07;;;;;;;3.83;3.53;;;25.00;99.90;;;;;;5086355;28;20452;-73
2021/09/10 08:44:35;;;;;;;2.63;2.43;;;25.00;99.90;;;;;;5083147;28;20513;-73
2021/09/10 08:47:02;;;;;;;3.30;3.00;;;24.80;99.90;;;;;;5087941;28;20460;-74
2021/09/10 08:49:28;;;;;;;4.40;3.60;;;24.80;99.90;;;;;;5090972;28;20441;-74
2021/09/10 08:51:56;;;;;;;3.73;3.43;;;24.80;99.90;;;;;;5092535;28;20490;-74
2021/09/10 08:54:23;;;;;;;3.70;3.40;;;24.80;99.90;;;;;;5091086;28;20444;-74
2021/09/10 08:56:50;;;;;;;4.00;3.40;;;24.90;99.90;;;;;;5087658;28;20444;-74
2021/09/10 08:59:19;;;;;;;3.60;3.03;;;25.00;99.90;;;;;;5091491;28;20456;-73
2021/09/10 09:01:50;;;;;;;3.70;3.17;;;25.10;99.90;;;;;;5091094;28;20456;-73
2021/09/10 09:04:17;;;;;;;5.27;3.00;;;25.20;99.90;;;;;;5089187;28;20444;-73
2021/09/10 09:06:44;;;;;;;2.93;2.73;;;25.30;99.90;;;;;;5088320;28;20847;-74
2021/09/10 09:09:12;;;;;;;3.63;3.27;;;25.30;99.90;;;;;;5081929;28;20465;-73
2021/09/10 09:11:39;;;;;;;2.97;2.77;;;25.30;99.90;;;;;;5085829;28;20479;-73
2021/09/10 09:14:06;;;;;;;2.67;2.43;;;25.30;99.90;;;;;;5091944;28;20939;-74
2021/09/10 09:16:37;;;;;;;3.20;2.93;;;25.40;99.90;;;;;;5090598;28;20467;-73
2021/09/10 09:19:06;;;;;;;3.17;2.93;;;25.40;99.90;;;;;;5077689;28;20595;-73
2021/09/10 09:21:35;;;;;;;6.77;3.53;;;25.40;99.90;;;;;;5078085;28;20449;-73
2021/09/10 09:24:19;;;;;;;2.83;2.63;;;25.40;99.90;;;;;;5072824;28;20437;-73
2021/09/10 09:26:47;;;;;;;3.03;2.83;;;25.40;99.90;;;;;;5087181;28;20444;-73
2021/09/10 09:29:16;;;;;;;3.20;2.90;;;25.50;99.90;;;;;;5091885;28;20437;-73
2021/09/10 09:31:53;;;;;;;3.93;2.60;;;25.40;99.90;;;;;;5092133;28;20894;-74
2021/09/10 09:34:43;;;;;;;3.13;2.87;;;25.40;99.90;;;;;;5089868;28;20464;-73
2021/09/10 09:37:10;;;;;;;6.57;2.97;;;25.30;99.90;;;;;;5092076;28;20531;-73
2021/09/10 09:39:51;;;;;;;3.50;3.20;;;25.30;99.90;;;;;;5089765;28;20471;-73
2021/09/10 09:42:24;;;;;;;3.80;3.10;;;25.10;99.90;;;;;;5078076;28;20449;-73
2021/09/10 09:45:10;;;;;;;3.73;2.73;;;25.10;99.90;;;;;;5089566;28;20453;-73
2021/09/10 09:47:37;;;;;;;3.30;2.97;;;25.10;99.90;;;;;;5092077;28;20561;-73
2021/09/10 09:50:05;;;;;;;5.00;3.20;;;25.10;99.90;;;;;;5085870;28;20484;-73
2021/09/10 09:52:32;;;;;;;3.10;2.90;;;25.10;99.90;;;;;;5090202;28;20460;-73
2021/09/10 09:55:02;;;;;;;3.53;2.60;;;25.10;99.90;;;;;;5086162;28;20457;-74
2021/09/10 09:57:29;;;;;;;2.93;2.73;;;25.10;99.90;;;;;;5081606;28;20956;-74
2021/09/10 09:59:56;;;;;;;3.17;2.87;;;25.10;99.90;;;;;;5089849;28;20452;-74
2021/09/10 10:02:23;;;;;;;2.77;2.57;;;25.20;99.90;;;;;;5091178;28;20443;-74
2021/09/10 10:04:50;;;;;;;3.33;2.57;;;25.20;99.90;;;;;;5083270;28;20498;-73
2021/09/10 10:07:19;;;;;;;3.20;2.60;;;25.20;99.90;;;;;;5085247;28;20482;-75
2021/09/10 10:09:48;;;;;;;2.40;2.20;;;25.20;99.90;;;;;;5086499;28;20461;-73
2021/09/10 10:12:22;;;;;;;3.30;3.00;;;25.20;99.90;;;;;;5081645;28;20449;-74
2021/09/10 10:14:49;;;;;;;2.60;2.37;;;25.20;99.90;;;;;;5091323;28;20448;-74
2021/09/10 10:17:37;;;;;;;2.83;2.37;;;25.20;99.90;;;;;;5088835;28;21106;-73
2021/09/10 10:20:05;;;;;;;3.00;2.80;;;25.10;99.90;;;;;;5082177;28;20476;-73
2021/09/10 10:22:34;;;;;;;3.17;2.87;;;25.10;99.90;;;;;;5079273;28;20964;-73
2021/09/10 10:25:02;;;;;;;3.00;2.60;;;25.00;99.90;;;;;;5080628;28;20488;-74
2021/09/10 10:27:46;;;;;;;3.10;2.90;;;25.00;99.90;;;;;;5088924;28;20460;-74
2021/09/10 10:30:47;;;;;;;3.10;2.57;;;24.90;99.90;;;;;;5077265;28;20476;-74
2021/09/10 10:33:29;;;;;;;3.20;2.90;;;24.90;99.90;;;;;;5078480;28;20471;-74
2021/09/10 10:35:56;;;;;;;2.53;2.33;;;24.80;99.90;;;;;;5074492;28;20460;-75
2021/09/10 10:38:23;;;;;;;3.87;2.63;;;24.90;99.90;;;;;;5085606;28;20448;-75
2021/09/10 10:40:51;;;;;;;2.80;2.60;;;24.90;99.90;;;;;;5086231;28;20490;-75
2021/09/10 10:43:28;;;;;;;2.73;2.40;;;24.90;99.90;;;;;;5090772;28;20435;-75
2021/09/10 10:46:03;;;;;;;2.50;2.30;;;24.90;99.90;;;;;;5088840;28;20490;-75
2021/09/10 10:48:47;;;;;;;2.53;2.33;;;24.80;99.90;;;;;;5084538;28;20459;-75
2021/09/10 10:51:40;;;;;;;2.97;2.53;;;24.90;99.90;;;;;;5090727;28;20992;-75
2021/09/10 10:54:12;;;;;;;2.73;2.53;;;24.90;99.90;;;;;;5084628;28;21288;-74
2021/09/10 10:56:46;;;;;;;3.33;3.03;;;24.90;99.90;;;;;;5070481;28;20802;-75
2021/09/10 10:59:37;;;;;;;2.50;2.30;;;24.90;99.90;;;;;;5088203;28;20563;-75
2021/09/10 11:02:35;;;;;;;2.80;2.60;;;24.80;99.90;;;;;;5085631;28;20548;-75
2021/09/10 11:05:14;;;;;;;3.73;2.80;;;24.80;99.90;;;;;;5075898;28;20448;-74
2021/09/10 11:07:42;;;;;;;2.80;2.60;;;24.80;99.90;;;;;;5090622;28;21013;-75
2021/09/10 11:10:11;;;;;;;2.93;2.73;;;24.80;99.90;;;;;;5083409;28;20449;-75
2021/09/10 11:12:39;;;;;;;3.13;2.87;;;24.80;99.90;;;;;;5089853;28;20513;-75
2021/09/10 11:15:27;;;;;;;2.27;2.03;;;24.90;99.90;;;;;;5085971;28;20448;-74
2021/09/10 11:17:59;;;;;;;3.43;2.57;;;25.00;99.90;;;;;;5091008;28;20456;-74
2021/09/10 11:20:27;;;;;;;2.70;2.50;;;25.00;99.90;;;;;;5088608;28;20476;-74
2021/09/10 11:22:54;;;;;;;2.33;1.77;;;25.00;99.90;;;;;;5088624;28;20460;-74
2021/09/10 11:25:21;;;;;;;2.77;2.40;;;25.10;99.90;;;;;;5087965;28;20455;-74
2021/09/10 11:27:48;;;;;;;2.20;1.80;;;25.10;99.90;;;;;;5086040;28;20457;-74
2021/09/10 11:30:17;;;;;;;2.60;2.40;;;25.10;99.90;;;;;;5087597;28;20449;-74
2021/09/10 11:32:43;;;;;;;2.97;2.30;;;25.10;99.90;;;;;;5091779;28;20464;-74
2021/09/10 11:35:18;;;;;;;2.17;1.93;;;25.10;99.90;;;;;;5091646;28;20464;-74
2021/09/10 11:37:52;;;;;;;3.53;2.80;;;25.10;99.90;;;;;;5093576;28;20444;-74
2021/09/10 11:40:29;;;;;;;5.10;2.20;;;25.10;99.90;;;;;;5089053;28;20444;-73
2021/09/10 11:43:02;;;;;;;2.93;2.63;;;25.10;99.90;;;;;;5076543;28;20459;-73
2021/09/10 11:45:34;;;;;;;5.93;2.43;;;25.10;99.90;;;;;;5077860;28;20813;-74
2021/09/10 11:48:01;;;;;;;2.33;2.13;;;25.10;99.90;;;;;;5074111;28;20441;-73
2021/09/10 11:50:27;;;;;;;3.93;2.60;;;25.10;99.90;;;;;;5084428;28;20457;-74
2021/09/10 11:52:54;;;;;;;2.37;2.17;;;25.10;99.90;;;;;;5088742;28;20460;-73
2021/09/10 11:55:21;;;;;;;3.03;2.63;;;25.10;99.90;;;;;;5083481;28;20465;-73
2021/09/10 11:57:48;;;;;;;4.10;2.37;;;25.10;99.90;;;;;;5082826;28;20777;-73
2021/09/10 12:00:24;;;;;;;2.97;2.50;;;25.10;99.90;;;;;;5093239;28;20460;-74
2021/09/10 12:02:55;;;;;;;3.93;2.30;;;25.20;99.90;;;;;;5092031;28;20456;-74
2021/09/10 12:05:22;;;;;;;2.70;2.50;;;25.10;99.90;;;;;;5077055;28;20453;-73
2021/09/10 12:07:51;;;;;;;3.87;2.10;;;25.10;99.90;;;;;;5091307;28;20486;-73
2021/09/10 12:10:28;;;;;;;3.30;3.00;;;25.10;99.90;;;;;;5085907;28;20552;-73
2021/09/10 12:13:08;;;;;;;2.40;2.20;;;25.10;99.90;;;;;;5090836;28;20463;-74
2021/09/10 12:15:35;;;;;;;2.87;2.13;;;25.10;99.90;;;;;;5087250;28;20463;-74
2021/09/10 12:18:10;;;;;;;3.10;1.80;;;25.10;99.90;;;;;;5090207;28;20464;-74
2021/09/10 12:20:38;;;;;;;2.60;2.20;;;25.10;99.90;;;;;;5082852;28;20524;-74
2021/09/10 12:23:05;;;;;;;2.53;2.30;;;25.10;99.90;;;;;;5078148;28;20457;-74
2021/09/10 12:25:46;;;;;;;3.47;2.73;;;25.10;99.90;;;;;;5072970;28;20468;-74
2021/09/10 12:28:26;;;;;;;4.83;2.30;;;25.00;99.90;;;;;;5090116;28;20892;-75
2021/09/10 12:30:59;;;;;;;2.47;2.27;;;25.00;99.90;;;;;;5093886;28;20510;-75
2021/09/10 12:33:29;;;;;;;2.87;2.17;;;25.00;99.90;;;;;;5084456;28;20979;-76
2021/09/10 12:35:58;;;;;;;3.10;2.73;;;25.00;99.90;;;;;;5082062;28;20989;-74
2021/09/10 12:38:29;;;;;;;3.07;2.47;;;25.00;99.90;;;;;;5079032;28;20442;-75
2021/09/10 12:40:56;;;;;;;2.67;2.47;;;25.00;99.90;;;;;;5085414;28;20463;-75
2021/09/10 12:43:24;;;;;;;2.97;2.40;;;25.00;99.90;;;;;;5089521;28;20812;-76
2021/09/10 12:45:51;;;;;;;3.00;2.50;;;25.00;99.90;;;;;;5093250;28;20494;-74
2021/09/10 12:48:18;;;;;;;2.70;2.50;;;25.00;99.90;;;;;;5090579;28;20514;-75
2021/09/10 12:50:47;;;;;;;2.80;2.50;;;25.00;99.90;;;;;;5088556;28;20981;-74
2021/09/10 12:53:14;;;;;;;2.87;2.33;;;25.00;99.90;;;;;;5080578;28;20453;-74
2021/09/10 12:55:41;;;;;;;3.10;2.40;;;25.00;99.90;;;;;;5072589;28;20461;-74